Decoded Metar for CYIO (POND INLET in NU, CANADA) (IATA:YIO) | Meteo·Mobile Aviation Weather
aviador You're here:

CYIO Decoded Metar

POND INLET in NU, CANADA
Report Time2019-05-22 06:00:00
UTC Time2019-05-22 06:35:53
Flight Rules vfr VFR
Wind100° at 02 kt
W.Decomp.*RWY 20: 1.0 kt HW 1.7 kt LCW
Visibility9999 m
Phenomena:N/A
Clouds:N/A
Expected CloudBase > 1,200 ft AGL from Temp-Dew spread
CeilingNone
Temp-2°C (ISA -17)
Dew Point-5°C (80% RH)
AAT-5.3°C
QNH1027 hPa
Density Alt-2,274 ft
Elevation187 ft
Report Wrong Elevation
Raw Report
CYIO 220600Z AUTO 10002KT 9SM CLR M02/M05 A3033 RMK SLP277=

Extra information for CYIO:More info

Metar Taf Metar & Taf Last 4 Metars F.Rules Stats Wind Profile Meteogram Temp Stats Airport Information Weather charts Add Link Nearby VenuesMetar ALERT Operation Metar Decoded Social comments